sensor_id;sensor_type;location;lat;lon;timestamp;temperature;humidity
8269;DHT22;4174;48.304;16.364;2023-05-10T00:00:26;11.90;99.90
8269;DHT22;4174;48.304;16.364;2023-05-10T00:06:29;11.80;99.90
8269;DHT22;4174;48.304;16.364;2023-05-10T00:12:32;11.80;99.90
8269;DHT22;4174;48.304;16.364;2023-05-10T00:18:36;11.80;99.90
8269;DHT22;4174;48.304;16.364;2023-05-10T00:24:39;12.00;99.90
8269;DHT22;4174;48.304;16.364;2023-05-10T00:30:43;12.10;99.90
8269;DHT22;4174;48.304;16.364;2023-05-10T00:36:47;12.00;99.90
8269;DHT22;4174;48.304;16.364;2023-05-10T00:42:50;12.00;99.90
8269;DHT22;4174;48.304;16.364;2023-05-10T00:48:54;12.00;99.90
8269;DHT22;4174;48.304;16.364;2023-05-10T00:54:57;11.90;99.90
8269;DHT22;4174;48.304;16.364;2023-05-10T01:01:00;11.90;99.90
8269;DHT22;4174;48.304;16.364;2023-05-10T01:07:04;11.70;99.90
8269;DHT22;4174;48.304;16.364;2023-05-10T01:13:07;11.70;99.90
8269;DHT22;4174;48.304;16.364;2023-05-10T01:19:16;11.70;99.90
8269;DHT22;4174;48.304;16.364;2023-05-10T01:25:51;11.70;99.90
8269;DHT22;4174;48.304;16.364;2023-05-10T01:32:05;11.60;99.90
8269;DHT22;4174;48.304;16.364;2023-05-10T01:38:29;10.90;99.90
8269;DHT22;4174;48.304;16.364;2023-05-10T01:44:38;10.90;99.90
8269;DHT22;4174;48.304;16.364;2023-05-10T01:50:43;10.80;99.90
8269;DHT22;4174;48.304;16.364;2023-05-10T01:56:44;10.70;99.90
8269;DHT22;4174;48.304;16.364;2023-05-10T02:02:48;10.80;99.90
8269;DHT22;4174;48.304;16.364;2023-05-10T02:08:51;10.70;99.90
8269;DHT22;4174;48.304;16.364;2023-05-10T02:14:53;10.70;99.90
8269;DHT22;4174;48.304;16.364;2023-05-10T02:20:56;10.70;99.90
8269;DHT22;4174;48.304;16.364;2023-05-10T02:26:59;10.60;99.90
8269;DHT22;4174;48.304;16.364;2023-05-10T02:33:03;10.60;99.90
8269;DHT22;4174;48.304;16.364;2023-05-10T02:39:06;10.60;99.90
8269;DHT22;4174;48.304;16.364;2023-05-10T02:45:11;10.40;99.90
8269;DHT22;4174;48.304;16.364;2023-05-10T02:51:14;10.40;99.90
8269;DHT22;4174;48.304;16.364;2023-05-10T02:57:17;10.60;99.90
8269;DHT22;4174;48.304;16.364;2023-05-10T03:03:19;10.60;99.90
8269;DHT22;4174;48.304;16.364;2023-05-10T03:09:23;10.60;99.90
8269;DHT22;4174;48.304;16.364;2023-05-10T03:15:42;10.80;99.90
8269;DHT22;4174;48.304;16.364;2023-05-10T03:21:49;10.60;99.90
8269;DHT22;4174;48.304;16.364;2023-05-10T03:27:51;10.60;99.90
8269;DHT22;4174;48.304;16.364;2023-05-10T03:33:54;10.40;99.90
8269;DHT22;4174;48.304;16.364;2023-05-10T03:39:58;10.10;99.90
8269;DHT22;4174;48.304;16.364;2023-05-10T03:46:03;10.00;99.90
8269;DHT22;4174;48.304;16.364;2023-05-10T03:52:05;9.90;99.90
8269;DHT22;4174;48.304;16.364;2023-05-10T03:58:12;10.00;99.90
8269;DHT22;4174;48.304;16.364;2023-05-10T04:04:15;9.90;99.90
8269;DHT22;4174;48.304;16.364;2023-05-10T04:10:19;9.90;99.90
8269;DHT22;4174;48.304;16.364;2023-05-10T04:16:22;9.80;99.90
8269;DHT22;4174;48.304;16.364;2023-05-10T04:22:26;9.90;99.90
8269;DHT22;4174;48.304;16.364;2023-05-10T04:28:29;9.90;99.90
8269;DHT22;4174;48.304;16.364;2023-05-10T04:34:33;9.90;99.90
8269;DHT22;4174;48.304;16.364;2023-05-10T04:40:37;10.10;99.90
8269;DHT22;4174;48.304;16.364;2023-05-10T04:46:42;10.60;99.90
8269;DHT22;4174;48.304;16.364;2023-05-10T04:52:46;10.60;99.90
8269;DHT22;4174;48.304;16.364;2023-05-10T04:58:50;11.10;99.90
8269;DHT22;4174;48.304;16.364;2023-05-10T05:04:55;11.50;99.90
8269;DHT22;4174;48.304;16.364;2023-05-10T05:10:57;11.70;99.90
8269;DHT22;4174;48.304;16.364;2023-05-10T05:17:01;12.60;99.90
8269;DHT22;4174;48.304;16.364;2023-05-10T05:23:05;14.30;99.90
8269;DHT22;4174;48.304;16.364;2023-05-10T05:29:10;17.10;99.90
8269;DHT22;4174;48.304;16.364;2023-05-10T05:35:13;17.10;99.90
8269;DHT22;4174;48.304;16.364;2023-05-10T05:41:17;17.10;99.90
8269;DHT22;4174;48.304;16.364;2023-05-10T05:47:20;17.00;99.90
8269;DHT22;4174;48.304;16.364;2023-05-10T05:53:24;16.60;99.90
8269;DHT22;4174;48.304;16.364;2023-05-10T05:59:27;16.40;99.90
8269;DHT22;4174;48.304;16.364;2023-05-10T06:05:30;17.30;99.90
8269;DHT22;4174;48.304;16.364;2023-05-10T06:11:34;17.30;99.90
8269;DHT22;4174;48.304;16.364;2023-05-10T06:17:37;18.50;99.90
8269;DHT22;4174;48.304;16.364;2023-05-10T06:23:40;18.20;99.90
8269;DHT22;4174;48.304;16.364;2023-05-10T06:29:44;18.10;99.90
8269;DHT22;4174;48.304;16.364;2023-05-10T06:35:47;18.20;99.90
8269;DHT22;4174;48.304;16.364;2023-05-10T06:41:51;18.10;99.90
8269;DHT22;4174;48.304;16.364;2023-05-10T06:47:54;18.30;99.90
8269;DHT22;4174;48.304;16.364;2023-05-10T06:53:58;17.80;99.90
8269;DHT22;4174;48.304;16.364;2023-05-10T07:00:02;18.30;99.90
8269;DHT22;4174;48.304;16.364;2023-05-10T07:06:05;18.20;99.80
8269;DHT22;4174;48.304;16.364;2023-05-10T07:12:10;17.90;99.90
8269;DHT22;4174;48.304;16.364;2023-05-10T07:18:14;18.10;99.90
8269;DHT22;4174;48.304;16.364;2023-05-10T07:24:18;18.20;99.90
8269;DHT22;4174;48.304;16.364;2023-05-10T07:30:21;18.20;99.80
8269;DHT22;4174;48.304;16.364;2023-05-10T07:36:25;18.30;99.90
8269;DHT22;4174;48.304;16.364;2023-05-10T07:42:28;18.50;99.90
8269;DHT22;4174;48.304;16.364;2023-05-10T07:48:32;18.20;99.70
8269;DHT22;4174;48.304;16.364;2023-05-10T07:54:36;18.10;99.80
8269;DHT22;4174;48.304;16.364;2023-05-10T08:00:40;17.90;99.90
8269;DHT22;4174;48.304;16.364;2023-05-10T08:06:43;18.50;99.90
8269;DHT22;4174;48.304;16.364;2023-05-10T08:12:48;17.60;99.90
8269;DHT22;4174;48.304;16.364;2023-05-10T08:18:52;17.60;99.90
8269;DHT22;4174;48.304;16.364;2023-05-10T08:24:55;17.20;99.90
8269;DHT22;4174;48.304;16.364;2023-05-10T08:30:59;17.80;99.90
8269;DHT22;4174;48.304;16.364;2023-05-10T08:37:03;18.30;99.90
8269;DHT22;4174;48.304;16.364;2023-05-10T08:43:06;19.10;99.90
8269;DHT22;4174;48.304;16.364;2023-05-10T08:49:09;19.10;99.80
8269;DHT22;4174;48.304;16.364;2023-05-10T08:55:12;18.30;99.90
8269;DHT22;4174;48.304;16.364;2023-05-10T09:01:15;18.80;99.90
8269;DHT22;4174;48.304;16.364;2023-05-10T09:07:18;18.50;99.90
8269;DHT22;4174;48.304;16.364;2023-05-10T09:13:21;19.00;99.80
8269;DHT22;4174;48.304;16.364;2023-05-10T09:19:23;18.80;99.90
8269;DHT22;4174;48.304;16.364;2023-05-10T09:25:27;18.10;99.90
8269;DHT22;4174;48.304;16.364;2023-05-10T09:31:44;18.10;99.90
8269;DHT22;4174;48.304;16.364;2023-05-10T09:37:47;18.40;99.90
8269;DHT22;4174;48.304;16.364;2023-05-10T09:43:49;18.20;99.90
8269;DHT22;4174;48.304;16.364;2023-05-10T09:49:52;18.70;99.90
8269;DHT22;4174;48.304;16.364;2023-05-10T09:55:56;18.60;99.90
8269;DHT22;4174;48.304;16.364;2023-05-10T10:01:59;19.70;99.20
8269;DHT22;4174;48.304;16.364;2023-05-10T10:08:03;19.80;98.70
8269;DHT22;4174;48.304;16.364;2023-05-10T10:14:06;19.70;97.60
8269;DHT22;4174;48.304;16.364;2023-05-10T10:20:11;20.40;96.10
8269;DHT22;4174;48.304;16.364;2023-05-10T10:26:14;20.20;95.60
8269;DHT22;4174;48.304;16.364;2023-05-10T10:32:27;20.80;94.20
8269;DHT22;4174;48.304;16.364;2023-05-10T10:38:55;21.00;92.80
8269;DHT22;4174;48.304;16.364;2023-05-10T10:51:13;20.60;91.60
8269;DHT22;4174;48.304;16.364;2023-05-10T10:57:17;20.10;91.00
8269;DHT22;4174;48.304;16.364;2023-05-10T11:03:20;20.50;88.60
8269;DHT22;4174;48.304;16.364;2023-05-10T11:09:23;20.40;88.60
8269;DHT22;4174;48.304;16.364;2023-05-10T11:15:31;21.00;94.80
8269;DHT22;4174;48.304;16.364;2023-05-10T11:21:44;20.90;88.50
8269;DHT22;4174;48.304;16.364;2023-05-10T11:27:37;20.10;91.40
8269;DHT22;4174;48.304;16.364;2023-05-10T11:33:43;21.40;90.20
8269;DHT22;4174;48.304;16.364;2023-05-10T11:39:46;19.90;90.30
8269;DHT22;4174;48.304;16.364;2023-05-10T11:45:49;19.90;90.20
8269;DHT22;4174;48.304;16.364;2023-05-10T11:51:53;20.30;86.70
8269;DHT22;4174;48.304;16.364;2023-05-10T11:57:59;20.30;90.10
8269;DHT22;4174;48.304;16.364;2023-05-10T12:03:58;20.70;88.70
8269;DHT22;4174;48.304;16.364;2023-05-10T12:10:05;20.60;84.30
8269;DHT22;4174;48.304;16.364;2023-05-10T12:16:16;20.60;84.50
8269;DHT22;4174;48.304;16.364;2023-05-10T12:22:20;20.60;85.20
8269;DHT22;4174;48.304;16.364;2023-05-10T12:28:21;20.80;79.90
8269;DHT22;4174;48.304;16.364;2023-05-10T12:34:25;20.30;79.10
8269;DHT22;4174;48.304;16.364;2023-05-10T12:40:28;20.10;88.00
8269;DHT22;4174;48.304;16.364;2023-05-10T12:46:31;20.00;83.50
8269;DHT22;4174;48.304;16.364;2023-05-10T12:52:35;20.70;88.10
8269;DHT22;4174;48.304;16.364;2023-05-10T12:58:39;21.00;80.50
8269;DHT22;4174;48.304;16.364;2023-05-10T13:04:42;20.50;80.80
8269;DHT22;4174;48.304;16.364;2023-05-10T13:10:45;20.80;81.50
8269;DHT22;4174;48.304;16.364;2023-05-10T13:16:49;20.40;83.50
8269;DHT22;4174;48.304;16.364;2023-05-10T13:22:55;20.30;82.90
8269;DHT22;4174;48.304;16.364;2023-05-10T13:28:59;20.20;85.30
8269;DHT22;4174;48.304;16.364;2023-05-10T13:35:02;20.10;86.10
8269;DHT22;4174;48.304;16.364;2023-05-10T13:41:06;19.60;88.70
8269;DHT22;4174;48.304;16.364;2023-05-10T13:47:10;19.60;88.00
8269;DHT22;4174;48.304;16.364;2023-05-10T13:53:14;19.60;88.00
8269;DHT22;4174;48.304;16.364;2023-05-10T13:59:18;19.90;85.70
8269;DHT22;4174;48.304;16.364;2023-05-10T14:05:21;20.20;81.40
8269;DHT22;4174;48.304;16.364;2023-05-10T14:11:26;20.10;82.90
8269;DHT22;4174;48.304;16.364;2023-05-10T14:17:30;19.90;80.50
8269;DHT22;4174;48.304;16.364;2023-05-10T14:23:34;20.10;78.10
8269;DHT22;4174;48.304;16.364;2023-05-10T14:29:38;19.90;75.60
8269;DHT22;4174;48.304;16.364;2023-05-10T14:35:42;19.90;75.20
8269;DHT22;4174;48.304;16.364;2023-05-10T14:41:45;19.80;79.20
8269;DHT22;4174;48.304;16.364;2023-05-10T14:47:49;19.90;79.70
8269;DHT22;4174;48.304;16.364;2023-05-10T14:53:51;20.10;78.00
8269;DHT22;4174;48.304;16.364;2023-05-10T14:59:55;20.10;77.70
8269;DHT22;4174;48.304;16.364;2023-05-10T15:05:57;20.30;78.70
8269;DHT22;4174;48.304;16.364;2023-05-10T15:12:00;20.10;76.10
8269;DHT22;4174;48.304;16.364;2023-05-10T15:18:05;19.90;75.00
8269;DHT22;4174;48.304;16.364;2023-05-10T15:24:08;19.70;76.00
8269;DHT22;4174;48.304;16.364;2023-05-10T15:30:14;19.30;78.70
8269;DHT22;4174;48.304;16.364;2023-05-10T15:36:18;19.50;79.40
8269;DHT22;4174;48.304;16.364;2023-05-10T15:42:21;19.40;79.90
8269;DHT22;4174;48.304;16.364;2023-05-10T15:48:25;19.10;81.50
8269;DHT22;4174;48.304;16.364;2023-05-10T15:54:29;19.20;80.70
8269;DHT22;4174;48.304;16.364;2023-05-10T16:00:33;19.20;80.60
8269;DHT22;4174;48.304;16.364;2023-05-10T16:06:36;19.20;81.80
8269;DHT22;4174;48.304;16.364;2023-05-10T16:12:40;18.90;81.80
8269;DHT22;4174;48.304;16.364;2023-05-10T16:18:44;18.90;82.60
8269;DHT22;4174;48.304;16.364;2023-05-10T16:24:47;19.00;83.20
8269;DHT22;4174;48.304;16.364;2023-05-10T16:30:50;19.00;81.90
8269;DHT22;4174;48.304;16.364;2023-05-10T16:36:53;19.10;80.60
8269;DHT22;4174;48.304;16.364;2023-05-10T16:42:57;19.00;80.10
8269;DHT22;4174;48.304;16.364;2023-05-10T16:49:00;18.90;81.70
8269;DHT22;4174;48.304;16.364;2023-05-10T16:55:05;18.60;84.80
8269;DHT22;4174;48.304;16.364;2023-05-10T17:01:08;18.60;84.80
8269;DHT22;4174;48.304;16.364;2023-05-10T17:07:12;18.40;82.30
8269;DHT22;4174;48.304;16.364;2023-05-10T17:13:14;18.50;82.10
8269;DHT22;4174;48.304;16.364;2023-05-10T17:19:18;18.50;82.00
8269;DHT22;4174;48.304;16.364;2023-05-10T17:25:21;18.40;82.90
8269;DHT22;4174;48.304;16.364;2023-05-10T17:31:25;18.60;83.10
8269;DHT22;4174;48.304;16.364;2023-05-10T17:37:28;18.40;83.10
8269;DHT22;4174;48.304;16.364;2023-05-10T17:43:32;18.30;83.40
8269;DHT22;4174;48.304;16.364;2023-05-10T17:49:36;18.30;82.60
8269;DHT22;4174;48.304;16.364;2023-05-10T17:55:39;18.30;82.90
8269;DHT22;4174;48.304;16.364;2023-05-10T18:01:42;18.30;83.20
8269;DHT22;4174;48.304;16.364;2023-05-10T18:07:45;18.30;82.90
8269;DHT22;4174;48.304;16.364;2023-05-10T18:13:49;18.20;82.70
8269;DHT22;4174;48.304;16.364;2023-05-10T18:19:53;18.20;84.00
8269;DHT22;4174;48.304;16.364;2023-05-10T18:25:58;18.20;83.90
8269;DHT22;4174;48.304;16.364;2023-05-10T18:32:03;18.20;84.10
8269;DHT22;4174;48.304;16.364;2023-05-10T18:38:07;18.20;84.50
8269;DHT22;4174;48.304;16.364;2023-05-10T18:44:10;18.20;85.30
8269;DHT22;4174;48.304;16.364;2023-05-10T18:50:13;17.90;86.10
8269;DHT22;4174;48.304;16.364;2023-05-10T18:56:16;17.90;86.80
8269;DHT22;4174;48.304;16.364;2023-05-10T19:02:20;17.90;88.40
8269;DHT22;4174;48.304;16.364;2023-05-10T19:08:23;17.80;88.70
8269;DHT22;4174;48.304;16.364;2023-05-10T19:14:27;17.60;89.70
8269;DHT22;4174;48.304;16.364;2023-05-10T19:20:30;17.50;90.70
8269;DHT22;4174;48.304;16.364;2023-05-10T19:26:35;17.10;92.60
8269;DHT22;4174;48.304;16.364;2023-05-10T19:32:38;17.10;92.60
8269;DHT22;4174;48.304;16.364;2023-05-10T19:38:42;17.00;94.00
8269;DHT22;4174;48.304;16.364;2023-05-10T19:44:45;16.90;94.00
8269;DHT22;4174;48.304;16.364;2023-05-10T19:50:50;17.10;95.10
8269;DHT22;4174;48.304;16.364;2023-05-10T19:56:52;17.10;95.10
8269;DHT22;4174;48.304;16.364;2023-05-10T20:02:56;17.00;95.40
8269;DHT22;4174;48.304;16.364;2023-05-10T20:08:59;16.50;97.20
8269;DHT22;4174;48.304;16.364;2023-05-10T20:15:04;16.60;97.70
8269;DHT22;4174;48.304;16.364;2023-05-10T20:21:08;16.60;98.20
8269;DHT22;4174;48.304;16.364;2023-05-10T20:27:11;16.60;98.20
8269;DHT22;4174;48.304;16.364;2023-05-10T20:33:15;16.50;98.60
8269;DHT22;4174;48.304;16.364;2023-05-10T20:39:19;16.40;99.10
8269;DHT22;4174;48.304;16.364;2023-05-10T20:45:22;16.20;99.60
8269;DHT22;4174;48.304;16.364;2023-05-10T20:51:26;16.20;99.90
8269;DHT22;4174;48.304;16.364;2023-05-10T20:57:30;16.10;99.90
8269;DHT22;4174;48.304;16.364;2023-05-10T21:03:33;16.00;99.90
8269;DHT22;4174;48.304;16.364;2023-05-10T21:09:37;16.10;99.90
8269;DHT22;4174;48.304;16.364;2023-05-10T21:15:40;16.10;99.90
8269;DHT22;4174;48.304;16.364;2023-05-10T21:21:44;16.00;99.90
8269;DHT22;4174;48.304;16.364;2023-05-10T21:27:47;15.90;99.90
8269;DHT22;4174;48.304;16.364;2023-05-10T21:33:51;15.70;99.90
8269;DHT22;4174;48.304;16.364;2023-05-10T21:39:55;15.70;99.90
8269;DHT22;4174;48.304;16.364;2023-05-10T21:45:58;15.70;99.90
8269;DHT22;4174;48.304;16.364;2023-05-10T21:52:02;15.70;99.90
8269;DHT22;4174;48.304;16.364;2023-05-10T21:58:06;15.90;99.90
8269;DHT22;4174;48.304;16.364;2023-05-10T22:04:10;15.90;99.90
8269;DHT22;4174;48.304;16.364;2023-05-10T22:10:14;15.80;99.90
8269;DHT22;4174;48.304;16.364;2023-05-10T22:16:18;15.50;99.90
8269;DHT22;4174;48.304;16.364;2023-05-10T22:22:21;15.80;99.90
8269;DHT22;4174;48.304;16.364;2023-05-10T22:28:25;15.60;99.90
8269;DHT22;4174;48.304;16.364;2023-05-10T22:34:29;15.70;99.90
8269;DHT22;4174;48.304;16.364;2023-05-10T22:40:32;15.50;99.90
8269;DHT22;4174;48.304;16.364;2023-05-10T22:46:36;15.60;99.90
8269;DHT22;4174;48.304;16.364;2023-05-10T22:52:39;15.60;99.90
8269;DHT22;4174;48.304;16.364;2023-05-10T22:58:42;15.70;99.90
8269;DHT22;4174;48.304;16.364;2023-05-10T23:04:46;15.40;99.90
8269;DHT22;4174;48.304;16.364;2023-05-10T23:10:49;15.50;99.90
8269;DHT22;4174;48.304;16.364;2023-05-10T23:16:53;15.70;99.90
8269;DHT22;4174;48.304;16.364;2023-05-10T23:22:56;15.40;99.90
8269;DHT22;4174;48.304;16.364;2023-05-10T23:29:00;15.60;99.90
8269;DHT22;4174;48.304;16.364;2023-05-10T23:35:05;15.30;99.90
8269;DHT22;4174;48.304;16.364;2023-05-10T23:41:11;15.40;99.90
8269;DHT22;4174;48.304;16.364;2023-05-10T23:47:14;15.50;99.90
8269;DHT22;4174;48.304;16.364;2023-05-10T23:53:19;15.60;99.90
8269;DHT22;4174;48.304;16.364;2023-05-10T23:59:22;15.50;99.90
